Ana Sayfa
METAR-TAF:

METAR-TAF

Havaalanları :

Watonga, Oklahoma, Amerika Birleşik Devletleri

Enlem: 35-51-53N, Boylam: 098-25-15W, yükseklik: 472 m

Güncel hava durumu gözlemi

Rapor saat 19:35 UTC de 15 dakika önce yapıldı.
Rüzgar kuzeydan 17 kt ve 23 kt'a kadar ani rüzgarlar
Sıcaklık 7°C
Nem 39%
Basınç 1030 hPa
Görüş mesafesi: 16.1 km
Açık gökyüzü

METAR: KJWG 181935Z AUTO 35017G23KT 10SM CLR 07/M06 A3041 RMK AO2 T00711063

Saat: 13:50 (19:50 UTC)


TAF: eksik

4.000'den fazla havaalanı için hava durumu gözlemleri ve tahminleri (METAR ve TAF raporları).

Kullanılabilir istasyonlar harita üzerinde sarı ve kırmızı noktalarla gösterilir.

İstasyonun adını görmek için fareyi noktanın üzerinde gezdirin.

Sonrasında hava gözlem ve tahminlerini görmek için tıklayın.

Haritayı değiştirmek için: yaklaştırmak için siyah artı işaretli yeşil düğmeye ve uzaklaştırmak için de eksi işaretli düğmeye hızla tıklayın; bitişik haritalar için yeşil okları kullanın.


METAR-TAF: